Time;durP1;ratioP1;P1;durP2;ratioP2;P2;SDS_P1;SDS_P2;PMS_P1;PMS_P2;Temp;Humidity;BMP_temperature;BMP_pressure;BME280_temperature;BME280_humidity;BME280_pressure;Samples;Min_cycle;Max_cycle;Signal;HPM_P1;HPM_P2
2024/01/01 00:01:18;;;;;;;5.65;5.45;;;;;;;;;;6166906;28;20042;-95
2024/01/01 00:04:20;;;;;;;6.43;6.13;;;;;;;;;;6164126;28;20055;-95
2024/01/01 00:07:22;;;;;;;6.68;6.38;;;;;;;;;;6166007;28;20511;-94
2024/01/01 00:10:24;;;;;;;6.85;6.53;;;;;;;;;;6167753;28;20121;-94
2024/01/01 00:13:26;;;;;;;6.18;5.75;;;;;;;;;;6155003;28;20055;-94
2024/01/01 00:16:28;;;;;;;7.43;7.13;;;;;;;;;;6163771;28;20046;-95
2024/01/01 00:19:30;;;;;;;6.05;5.85;;;;;;;;;;6164102;28;20043;-94
2024/01/01 00:22:31;;;;;;;6.13;5.93;;;;;;;;;;6159321;28;20058;-94
2024/01/01 00:25:36;;;;;;;6.43;6.13;;;;;;;;;;6164839;28;20043;-94
2024/01/01 00:28:38;;;;;;;6.50;6.30;;;;;;;;;;6167615;28;20047;-94
2024/01/01 00:31:40;;;;;;;5.72;5.53;;;;;;;;;;6168571;28;20061;-94
2024/01/01 00:34:42;;;;;;;5.65;5.45;;;;;;;;;;6167370;28;20191;-94
2024/01/01 00:37:44;;;;;;;5.03;4.75;;;;;;;;;;6165138;28;20050;-93
2024/01/01 00:40:45;;;;;;;8.95;8.23;;;;;;;;;;6169632;28;20057;-94
2024/01/01 00:43:48;;;;;;;4.80;4.70;;;;;;;;;;6146702;28;20049;-94
2024/01/01 00:46:50;;;;;;;7.88;7.57;;;;;;;;;;6165326;28;20042;-95
2024/01/01 00:49:52;;;;;;;6.80;6.50;;;;;;;;;;6149069;28;20061;-95
2024/01/01 00:52:54;;;;;;;5.30;5.03;;;;;;;;;;6166361;28;20062;-94
2024/01/01 00:55:56;;;;;;;4.70;4.60;;;;;;;;;;6163594;28;20133;-95
2024/01/01 00:58:57;;;;;;;5.38;5.18;;;;;;;;;;6167717;28;20077;-95
2024/01/01 01:01:59;;;;;;;6.32;6.10;;;;;;;;;;6162610;28;20449;-94
2024/01/01 01:05:01;;;;;;;5.03;4.82;;;;;;;;;;6173971;28;20059;-95
2024/01/01 01:08:08;;;;;;;5.35;5.15;;;;;;;;;;6167255;28;20054;-95
2024/01/01 01:11:10;;;;;;;5.03;4.82;;;;;;;;;;6150485;28;20142;-94
2024/01/01 01:14:12;;;;;;;5.65;5.35;;;;;;;;;;6144795;28;20049;-95
2024/01/01 01:17:13;;;;;;;5.57;5.38;;;;;;;;;;6165090;28;20314;-95
2024/01/01 01:20:15;;;;;;;5.75;5.28;;;;;;;;;;6167205;28;20489;-95
2024/01/01 01:23:17;;;;;;;5.63;5.32;;;;;;;;;;6157927;28;20082;-95
2024/01/01 01:26:19;;;;;;;5.38;5.22;;;;;;;;;;6162387;28;20485;-95
2024/01/01 01:29:21;;;;;;;5.35;5.18;;;;;;;;;;6160846;28;20500;-95
2024/01/01 01:32:22;;;;;;;5.00;4.88;;;;;;;;;;6163348;28;20541;-95
2024/01/01 01:35:25;;;;;;;5.20;5.00;;;;;;;;;;6156488;28;20133;-95
2024/01/01 01:38:28;;;;;;;4.72;4.53;;;;;;;;;;6166347;28;20346;-95
2024/01/01 01:41:30;;;;;;;5.03;4.82;;;;;;;;;;6159808;28;20528;-95
2024/01/01 01:44:32;;;;;;;4.50;4.40;;;;;;;;;;6159338;28;20402;-95
2024/01/01 01:47:35;;;;;;;5.25;5.05;;;;;;;;;;6145817;28;20421;-94
2024/01/01 01:50:37;;;;;;;4.78;4.68;;;;;;;;;;6161139;28;20074;-95
2024/01/01 01:53:39;;;;;;;5.03;4.93;;;;;;;;;;6170219;28;20409;-93
2024/01/01 01:56:43;;;;;;;5.45;5.15;;;;;;;;;;6166337;28;20053;-94
2024/01/01 01:59:45;;;;;;;4.18;4.07;;;;;;;;;;6148521;28;20094;-94
2024/01/01 02:02:48;;;;;;;5.93;5.47;;;;;;;;;;6164669;28;20073;-96
2024/01/01 02:05:50;;;;;;;5.50;5.30;;;;;;;;;;6162765;28;20189;-95
2024/01/01 02:08:52;;;;;;;5.88;5.57;;;;;;;;;;6144523;28;20054;-94
2024/01/01 02:11:55;;;;;;;7.13;6.75;;;;;;;;;;6162528;28;20412;-95
2024/01/01 02:14:58;;;;;;;6.28;5.68;;;;;;;;;;6164542;28;20058;-95
2024/01/01 02:18:00;;;;;;;5.25;5.03;;;;;;;;;;6161757;28;20051;-95
2024/01/01 02:21:02;;;;;;;5.18;4.97;;;;;;;;;;6165517;28;20493;-95
2024/01/01 02:24:04;;;;;;;9.10;8.68;;;;;;;;;;6156263;28;20531;-95
2024/01/01 02:27:06;;;;;;;5.35;5.00;;;;;;;;;;6176969;28;20421;-95
2024/01/01 02:30:10;;;;;;;5.57;5.38;;;;;;;;;;6162524;28;20413;-94
2024/01/01 02:33:14;;;;;;;5.28;5.07;;;;;;;;;;6143077;28;20039;-95
2024/01/01 02:36:17;;;;;;;5.47;5.28;;;;;;;;;;6158252;28;20047;-94
2024/01/01 02:39:18;;;;;;;5.75;5.55;;;;;;;;;;6162843;28;20047;-94
2024/01/01 02:42:20;;;;;;;4.88;4.68;;;;;;;;;;6172052;28;20408;-94
2024/01/01 02:45:24;;;;;;;5.65;5.45;;;;;;;;;;6163790;28;20042;-95
2024/01/01 02:48:25;;;;;;;4.88;4.72;;;;;;;;;;6165460;28;20124;-94
2024/01/01 02:51:28;;;;;;;6.78;6.38;;;;;;;;;;6163900;28;20054;-95
2024/01/01 02:54:30;;;;;;;5.72;5.47;;;;;;;;;;6166635;28;20485;-95
2024/01/01 02:57:32;;;;;;;5.78;5.57;;;;;;;;;;6159945;28;20479;-95
2024/01/01 03:00:34;;;;;;;5.15;5.05;;;;;;;;;;6160551;28;20058;-95
2024/01/01 03:03:36;;;;;;;5.40;5.18;;;;;;;;;;6164234;28;20039;-94
2024/01/01 03:06:38;;;;;;;5.40;5.10;;;;;;;;;;6164602;28;20050;-94
2024/01/01 03:09:41;;;;;;;5.72;5.53;;;;;;;;;;6160888;28;20042;-95
2024/01/01 03:12:43;;;;;;;5.88;5.65;;;;;;;;;;6160125;28;20043;-95
2024/01/01 03:15:45;;;;;;;5.25;5.05;;;;;;;;;;6165831;28;20100;-94
2024/01/01 03:18:47;;;;;;;5.53;5.28;;;;;;;;;;6152791;28;20051;-95
2024/01/01 03:21:49;;;;;;;5.72;5.53;;;;;;;;;;6168610;28;20054;-94
2024/01/01 03:24:51;;;;;;;5.07;4.85;;;;;;;;;;6175242;28;20050;-95
2024/01/01 03:27:54;;;;;;;5.18;4.97;;;;;;;;;;6165575;28;20045;-96
2024/01/01 03:30:56;;;;;;;15.05;14.40;;;;;;;;;;6164386;28;20109;-95
2024/01/01 03:33:58;;;;;;;5.00;4.80;;;;;;;;;;6165378;28;20039;-95
2024/01/01 03:37:01;;;;;;;6.00;5.72;;;;;;;;;;6167219;28;20424;-95
2024/01/01 03:40:03;;;;;;;5.07;4.88;;;;;;;;;;6168004;28;20038;-95
2024/01/01 03:43:05;;;;;;;5.22;4.93;;;;;;;;;;6162426;28;20062;-95
2024/01/01 03:46:07;;;;;;;5.32;5.13;;;;;;;;;;6170697;28;20058;-95
2024/01/01 03:49:09;;;;;;;5.38;5.18;;;;;;;;;;6170028;28;20141;-95
2024/01/01 03:52:13;;;;;;;6.32;5.60;;;;;;;;;;6162816;28;20509;-95
2024/01/01 03:55:15;;;;;;;5.20;5.03;;;;;;;;;;6145324;28;20140;-95
2024/01/01 03:58:18;;;;;;;4.38;4.28;;;;;;;;;;6164970;28;20047;-95
2024/01/01 04:01:25;;;;;;;4.93;4.82;;;;;;;;;;6165742;28;20043;-95
2024/01/01 04:04:28;;;;;;;5.03;4.88;;;;;;;;;;6161352;28;20357;-95
2024/01/01 04:07:30;;;;;;;4.63;4.53;;;;;;;;;;6167284;28;20039;-94
2024/01/01 04:10:32;;;;;;;5.97;5.68;;;;;;;;;;6167025;28;20125;-95
2024/01/01 04:13:34;;;;;;;5.22;5.03;;;;;;;;;;6165123;28;20055;-95
2024/01/01 04:16:36;;;;;;;5.20;5.00;;;;;;;;;;6167778;28;20501;-95
2024/01/01 04:19:39;;;;;;;6.03;5.82;;;;;;;;;;6167511;28;20037;-94
2024/01/01 04:22:41;;;;;;;5.72;5.53;;;;;;;;;;6168659;28;20041;-94
2024/01/01 04:25:43;;;;;;;4.72;4.43;;;;;;;;;;6167319;28;20046;-96
2024/01/01 04:28:45;;;;;;;6.03;5.72;;;;;;;;;;6163137;28;20631;-95
2024/01/01 04:31:48;;;;;;;5.28;5.03;;;;;;;;;;6160969;28;20130;-95
2024/01/01 04:34:50;;;;;;;5.25;5.05;;;;;;;;;;6180621;28;20092;-94
2024/01/01 04:37:51;;;;;;;5.53;5.32;;;;;;;;;;6162219;28;20130;-94
2024/01/01 04:40:54;;;;;;;5.00;4.78;;;;;;;;;;6179974;28;20089;-95
2024/01/01 04:43:57;;;;;;;5.57;5.38;;;;;;;;;;6161957;28;20100;-94
2024/01/01 04:47:00;;;;;;;5.72;5.53;;;;;;;;;;6165337;28;20038;-95
2024/01/01 04:50:02;;;;;;;6.82;6.55;;;;;;;;;;6160583;28;20047;-94
2024/01/01 04:53:04;;;;;;;8.27;5.30;;;;;;;;;;6151120;28;20129;-94
2024/01/01 04:56:06;;;;;;;5.47;4.95;;;;;;;;;;6177705;28;20054;-94
2024/01/01 04:59:08;;;;;;;5.13;4.72;;;;;;;;;;6166539;28;20489;-95
2024/01/01 05:02:11;;;;;;;4.25;4.15;;;;;;;;;;6163713;28;20043;-95
2024/01/01 05:05:12;;;;;;;5.43;5.22;;;;;;;;;;6171155;28;20513;-95
2024/01/01 05:08:14;;;;;;;6.40;6.10;;;;;;;;;;6165724;28;20051;-95
2024/01/01 05:11:17;;;;;;;5.47;5.28;;;;;;;;;;6163819;28;20046;-95
2024/01/01 05:14:18;;;;;;;13.52;4.93;;;;;;;;;;6159202;28;20039;-94
2024/01/01 05:17:21;;;;;;;4.50;4.40;;;;;;;;;;6166213;28;20050;-95
2024/01/01 05:20:23;;;;;;;5.05;4.93;;;;;;;;;;6163675;28;20043;-95
2024/01/01 05:23:27;;;;;;;4.80;4.70;;;;;;;;;;6160482;28;20043;-95
2024/01/01 05:26:30;;;;;;;5.18;4.97;;;;;;;;;;6164577;28;20051;-95
2024/01/01 05:29:32;;;;;;;15.13;5.30;;;;;;;;;;6160958;28;20058;-95
2024/01/01 05:32:34;;;;;;;6.18;5.13;;;;;;;;;;6161291;28;20086;-95
2024/01/01 05:35:36;;;;;;;4.65;4.55;;;;;;;;;;6162230;28;20585;-95
2024/01/01 05:38:39;;;;;;;4.65;4.55;;;;;;;;;;6164571;28;20047;-96
2024/01/01 05:41:41;;;;;;;7.88;6.10;;;;;;;;;;6153574;28;20043;-95
2024/01/01 05:44:45;;;;;;;4.20;4.10;;;;;;;;;;6164356;28;20046;-94
2024/01/01 05:47:47;;;;;;;5.53;5.32;;;;;;;;;;6162157;28;20070;-95
2024/01/01 05:50:48;;;;;;;4.68;4.57;;;;;;;;;;6164196;28;20493;-95
2024/01/01 05:53:51;;;;;;;5.55;5.35;;;;;;;;;;6147474;28;20038;-95
2024/01/01 05:56:53;;;;;;;5.07;4.93;;;;;;;;;;6160874;28;20512;-94
2024/01/01 05:59:55;;;;;;;6.10;5.72;;;;;;;;;;6164479;28;20133;-95
2024/01/01 06:02:56;;;;;;;4.45;4.35;;;;;;;;;;6161889;28;20121;-94
2024/01/01 06:05:58;;;;;;;4.68;4.57;;;;;;;;;;6162415;28;20087;-95
2024/01/01 06:09:00;;;;;;;5.07;4.95;;;;;;;;;;6177972;28;20186;-95
2024/01/01 06:12:03;;;;;;;4.95;4.75;;;;;;;;;;6160842;28;20043;-95
2024/01/01 06:15:05;;;;;;;5.78;5.47;;;;;;;;;;6165323;28;20043;-95
2024/01/01 06:18:07;;;;;;;6.32;6.03;;;;;;;;;;6164736;28;20054;-94
2024/01/01 06:21:09;;;;;;;5.53;5.32;;;;;;;;;;6166787;28;20042;-95
2024/01/01 06:24:12;;;;;;;6.32;5.20;;;;;;;;;;6163683;28;20046;-95
2024/01/01 06:27:13;;;;;;;5.40;5.10;;;;;;;;;;6158290;28;20054;-95
2024/01/01 06:30:15;;;;;;;5.32;5.13;;;;;;;;;;6164466;28;20050;-95
2024/01/01 06:33:18;;;;;;;6.28;5.88;;;;;;;;;;6165825;28;20070;-95
2024/01/01 06:36:20;;;;;;;5.22;5.13;;;;;;;;;;6166214;28;20452;-95
2024/01/01 06:39:21;;;;;;;5.25;5.05;;;;;;;;;;6164758;28;20193;-95
2024/01/01 06:42:23;;;;;;;11.57;6.03;;;;;;;;;;6159392;28;20054;-95
2024/01/01 06:45:25;;;;;;;6.53;6.10;;;;;;;;;;6171425;28;20108;-95
2024/01/01 06:48:27;;;;;;;4.97;4.80;;;;;;;;;;6162226;28;20047;-95
2024/01/01 06:51:30;;;;;;;5.05;4.95;;;;;;;;;;6170273;28;20174;-95
2024/01/01 06:54:32;;;;;;;5.80;5.60;;;;;;;;;;6166050;28;20038;-96
2024/01/01 06:57:34;;;;;;;9.27;4.65;;;;;;;;;;6164373;28;20081;-95
2024/01/01 07:00:36;;;;;;;5.55;5.35;;;;;;;;;;6162618;28;20051;-96
2024/01/01 07:03:39;;;;;;;5.40;5.20;;;;;;;;;;6166182;28;20042;-96
2024/01/01 07:06:41;;;;;;;5.00;4.80;;;;;;;;;;6167515;28;20528;-95
2024/01/01 07:09:46;;;;;;;6.22;5.72;;;;;;;;;;6169859;28;20039;-95
2024/01/01 07:12:48;;;;;;;5.38;5.18;;;;;;;;;;6170477;28;20202;-95
2024/01/01 07:15:50;;;;;;;5.53;5.07;;;;;;;;;;6158153;28;20126;-95
2024/01/01 07:18:52;;;;;;;5.25;5.05;;;;;;;;;;6165449;28;20413;-96
2024/01/01 07:21:53;;;;;;;6.10;5.80;;;;;;;;;;6162729;28;20467;-95
2024/01/01 07:24:55;;;;;;;5.40;5.20;;;;;;;;;;6160030;28;20039;-95
2024/01/01 07:27:57;;;;;;;5.60;5.40;;;;;;;;;;6168974;28;20504;-96
2024/01/01 07:30:59;;;;;;;5.53;5.32;;;;;;;;;;6169912;28;20042;-96
2024/01/01 07:34:01;;;;;;;5.65;5.45;;;;;;;;;;6164568;28;20053;-95
2024/01/01 07:37:04;;;;;;;5.30;5.10;;;;;;;;;;6168701;28;20167;-95
2024/01/01 07:40:06;;;;;;;5.65;5.45;;;;;;;;;;6161704;28;20501;-95
2024/01/01 07:43:09;;;;;;;4.82;4.57;;;;;;;;;;6168390;28;20485;-95
2024/01/01 07:46:11;;;;;;;5.38;5.25;;;;;;;;;;6169741;28;20035;-95
2024/01/01 07:49:13;;;;;;;5.22;5.03;;;;;;;;;;6168615;28;20031;-95
2024/01/01 07:52:15;;;;;;;5.85;5.65;;;;;;;;;;6167701;28;20109;-96
2024/01/01 07:55:18;;;;;;;5.53;5.32;;;;;;;;;;6165062;28;20036;-96
2024/01/01 07:58:20;;;;;;;5.28;5.00;;;;;;;;;;6161471;28;20050;-96
2024/01/01 08:01:21;;;;;;;5.75;5.55;;;;;;;;;;6161391;28;20605;-95
2024/01/01 08:04:23;;;;;;;4.70;4.60;;;;;;;;;;6160087;28;20043;-95
2024/01/01 08:07:25;;;;;;;6.15;5.95;;;;;;;;;;6167397;28;20043;-96
2024/01/01 08:10:27;;;;;;;4.60;4.50;;;;;;;;;;6152719;28;20055;-96
2024/01/01 08:13:29;;;;;;;5.05;4.85;;;;;;;;;;6166039;28;20065;-96
2024/01/01 08:16:33;;;;;;;5.70;5.50;;;;;;;;;;6159395;28;20497;-96
2024/01/01 08:19:35;;;;;;;6.53;6.18;;;;;;;;;;6168099;28;20501;-96
2024/01/01 08:22:37;;;;;;;5.38;5.18;;;;;;;;;;6170664;28;20050;-95
2024/01/01 08:25:39;;;;;;;4.68;4.57;;;;;;;;;;6166399;28;20133;-94
2024/01/01 08:28:41;;;;;;;5.68;5.38;;;;;;;;;;6168422;28;20043;-95
2024/01/01 08:31:43;;;;;;;4.28;4.18;;;;;;;;;;6162022;28;20516;-95
2024/01/01 08:34:48;;;;;;;5.60;5.40;;;;;;;;;;6167433;28;20038;-95
2024/01/01 08:37:50;;;;;;;5.43;5.22;;;;;;;;;;6165797;28;20229;-94
2024/01/01 08:40:52;;;;;;;4.85;4.75;;;;;;;;;;6166887;28;20050;-96
2024/01/01 08:43:57;;;;;;;4.60;4.50;;;;;;;;;;6163525;28;20148;-95
2024/01/01 08:46:59;;;;;;;4.57;4.47;;;;;;;;;;6163596;28;20500;-95
2024/01/01 08:50:01;;;;;;;5.30;5.13;;;;;;;;;;6167124;28;20074;-95
2024/01/01 08:53:03;;;;;;;5.13;5.03;;;;;;;;;;6160654;28;20508;-94
2024/01/01 08:56:05;;;;;;;5.50;5.35;;;;;;;;;;6165943;28;20433;-95
2024/01/01 08:59:09;;;;;;;5.55;5.35;;;;;;;;;;6167602;28;20390;-95
2024/01/01 09:02:11;;;;;;;6.10;5.90;;;;;;;;;;6159397;28;20046;-94
2024/01/01 09:05:14;;;;;;;5.13;5.00;;;;;;;;;;6161381;28;20057;-94
2024/01/01 09:08:16;;;;;;;8.73;5.32;;;;;;;;;;6164381;28;20043;-95
2024/01/01 09:11:18;;;;;;;6.22;6.03;;;;;;;;;;6166517;28;20042;-95
2024/01/01 09:14:20;;;;;;;6.05;5.82;;;;;;;;;;6161184;28;20403;-94
2024/01/01 09:17:22;;;;;;;6.28;6.07;;;;;;;;;;6164408;28;20039;-94
2024/01/01 09:20:24;;;;;;;5.25;5.15;;;;;;;;;;6157968;28;20972;-93
2024/01/01 09:23:27;;;;;;;5.72;5.43;;;;;;;;;;6166050;28;20074;-94
2024/01/01 09:26:29;;;;;;;5.78;5.57;;;;;;;;;;6164501;28;20492;-94
2024/01/01 09:29:31;;;;;;;5.65;5.45;;;;;;;;;;6166130;28;20049;-95
2024/01/01 09:32:35;;;;;;;6.32;6.13;;;;;;;;;;6166925;28;20049;-94
2024/01/01 09:35:36;;;;;;;5.80;5.47;;;;;;;;;;6160095;28;20055;-96
2024/01/01 09:38:38;;;;;;;6.20;6.00;;;;;;;;;;6160803;28;20174;-94
2024/01/01 09:41:40;;;;;;;6.45;6.15;;;;;;;;;;6166312;28;20465;-93
2024/01/01 09:44:48;;;;;;;10.60;5.88;;;;;;;;;;6165789;28;20077;-94
2024/01/01 09:47:50;;;;;;;5.75;5.45;;;;;;;;;;6163953;28;20524;-94
2024/01/01 09:50:52;;;;;;;5.55;5.35;;;;;;;;;;6166303;28;20038;-90
2024/01/01 09:53:59;;;;;;;6.95;6.55;;;;;;;;;;6160640;28;20052;-90
2024/01/01 09:57:01;;;;;;;6.20;5.90;;;;;;;;;;6161416;28;20051;-90
2024/01/01 10:00:05;;;;;;;6.93;6.53;;;;;;;;;;6160724;28;20045;-90
2024/01/01 10:03:11;;;;;;;6.25;6.05;;;;;;;;;;6163016;28;20151;-90
2024/01/01 10:06:13;;;;;;;6.55;6.35;;;;;;;;;;6163268;28;20185;-90
2024/01/01 10:09:16;;;;;;;7.30;6.57;;;;;;;;;;6160697;28;20122;-90
2024/01/01 10:12:22;;;;;;;5.90;5.70;;;;;;;;;;6165634;28;20220;-90
2024/01/01 10:15:23;;;;;;;6.75;6.38;;;;;;;;;;6158086;28;20042;-90
2024/01/01 10:18:25;;;;;;;5.88;5.68;;;;;;;;;;6160282;28;20498;-90
2024/01/01 10:21:30;;;;;;;7.60;6.40;;;;;;;;;;6159899;28;20093;-90
2024/01/01 10:24:32;;;;;;;6.15;5.95;;;;;;;;;;6169521;28;20484;-90
2024/01/01 10:27:35;;;;;;;6.25;5.95;;;;;;;;;;6165670;28;20042;-90
2024/01/01 10:30:37;;;;;;;6.18;5.68;;;;;;;;;;6177896;28;20051;-90
2024/01/01 10:33:40;;;;;;;5.85;5.65;;;;;;;;;;6162940;28;20442;-90
2024/01/01 10:36:42;;;;;;;7.93;5.88;;;;;;;;;;6161406;28;20051;-91
2024/01/01 10:39:45;;;;;;;5.60;5.30;;;;;;;;;;6164975;28;20140;-90
2024/01/01 10:42:47;;;;;;;5.63;5.43;;;;;;;;;;6167185;28;20425;-90
2024/01/01 10:45:50;;;;;;;8.43;6.75;;;;;;;;;;6145594;28;20226;-90
2024/01/01 10:48:52;;;;;;;5.82;5.63;;;;;;;;;;6166585;28;20050;-90
2024/01/01 10:51:57;;;;;;;5.68;5.47;;;;;;;;;;6162349;28;20054;-90
2024/01/01 10:55:19;;;;;;;5.75;5.55;;;;;;;;;;6167272;28;20073;-90
2024/01/01 10:58:32;;;;;;;5.20;5.00;;;;;;;;;;6124928;28;20070;-90
2024/01/01 11:01:36;;;;;;;6.03;5.82;;;;;;;;;;6123334;28;20569;-91
2024/01/01 11:04:38;;;;;;;5.43;5.25;;;;;;;;;;6141302;28;20517;-90
2024/01/01 11:07:52;;;;;;;5.07;4.97;;;;;;;;;;6125915;29;20062;-90
2024/01/01 11:10:54;;;;;;;6.32;5.95;;;;;;;;;;6157057;28;20691;-91
2024/01/01 11:13:57;;;;;;;6.43;6.22;;;;;;;;;;6163720;28;20541;-90
2024/01/01 11:17:01;;;;;;;5.40;5.20;;;;;;;;;;6162679;28;20050;-90
2024/01/01 11:20:06;;;;;;;5.72;5.53;;;;;;;;;;6169720;28;20130;-91
2024/01/01 11:23:08;;;;;;;6.40;6.15;;;;;;;;;;6165952;28;20058;-91
2024/01/01 11:26:26;;;;;;;5.60;5.40;;;;;;;;;;6166167;28;20049;-91
2024/01/01 11:29:27;;;;;;;5.80;5.60;;;;;;;;;;6165013;28;20185;-90
2024/01/01 11:32:30;;;;;;;5.10;5.00;;;;;;;;;;6163512;28;20038;-91
2024/01/01 11:35:31;;;;;;;6.20;5.90;;;;;;;;;;6160483;28;20047;-90
2024/01/01 11:38:33;;;;;;;5.85;5.65;;;;;;;;;;6164282;28;20058;-91
2024/01/01 11:41:36;;;;;;;5.88;5.68;;;;;;;;;;6166911;28;20050;-91
2024/01/01 11:44:37;;;;;;;5.78;5.57;;;;;;;;;;6165926;28;20109;-92
2024/01/01 11:47:39;;;;;;;5.70;5.50;;;;;;;;;;6165474;28;20031;-90
2024/01/01 11:50:41;;;;;;;4.85;4.72;;;;;;;;;;6159519;28;20047;-91
2024/01/01 11:53:43;;;;;;;6.03;5.82;;;;;;;;;;6164701;28;20065;-90
2024/01/01 11:56:51;;;;;;;5.70;5.50;;;;;;;;;;6160661;28;20381;-89
2024/01/01 11:59:53;;;;;;;8.20;7.80;;;;;;;;;;6133831;28;20396;-90
2024/01/01 12:02:55;;;;;;;5.70;5.50;;;;;;;;;;6163068;28;20639;-92
2024/01/01 12:06:06;;;;;;;6.72;6.43;;;;;;;;;;6166576;28;20051;-90
2024/01/01 12:09:09;;;;;;;;;;;;;;;;;;6154180;28;20081;-91
2024/01/01 12:12:12;;;;;;;5.78;5.57;;;;;;;;;;6151881;28;20120;-92
2024/01/01 12:15:15;;;;;;;5.38;5.07;;;;;;;;;;6157903;28;20043;-92
2024/01/01 12:18:17;;;;;;;5.60;5.40;;;;;;;;;;6165120;28;20069;-92
2024/01/01 12:21:19;;;;;;;5.68;5.47;;;;;;;;;;6163656;28;20050;-92
2024/01/01 12:24:21;;;;;;;4.85;4.75;;;;;;;;;;6166605;28;20047;-92
2024/01/01 12:27:26;;;;;;;5.60;5.40;;;;;;;;;;6157802;28;20054;-91
2024/01/01 12:30:32;;;;;;;4.78;4.65;;;;;;;;;;6165657;28;20043;-92
2024/01/01 12:33:35;;;;;;;5.57;5.15;;;;;;;;;;6169861;28;20062;-93
2024/01/01 12:36:38;;;;;;;5.07;4.88;;;;;;;;;;6160994;28;20552;-93
2024/01/01 12:39:40;;;;;;;5.97;5.72;;;;;;;;;;6158744;28;20102;-93
2024/01/01 12:42:43;;;;;;;5.18;4.82;;;;;;;;;;6170154;28;20130;-93
2024/01/01 12:45:46;;;;;;;5.50;5.20;;;;;;;;;;6165860;28;20083;-94
2024/01/01 12:48:53;;;;;;;5.47;5.28;;;;;;;;;;6148997;28;20047;-94
2024/01/01 12:51:56;;;;;;;5.18;4.93;;;;;;;;;;6170394;28;20039;-94
2024/01/01 12:54:59;;;;;;;4.78;4.60;;;;;;;;;;6168667;28;20057;-92
2024/01/01 12:58:04;;;;;;;4.97;4.88;;;;;;;;;;6163446;28;20939;-93
2024/01/01 13:01:10;;;;;;;5.75;5.45;;;;;;;;;;6162180;28;20039;-94
2024/01/01 13:04:12;;;;;;;6.03;5.72;;;;;;;;;;6156690;28;20089;-94
2024/01/01 13:07:14;;;;;;;5.57;5.13;;;;;;;;;;6162019;28;20094;-94
2024/01/01 13:10:16;;;;;;;5.85;5.65;;;;;;;;;;6166321;28;20049;-94
2024/01/01 13:13:18;;;;;;;5.13;5.00;;;;;;;;;;6161999;28;20113;-94
2024/01/01 13:16:19;;;;;;;5.45;5.25;;;;;;;;;;6163743;28;20134;-93
2024/01/01 13:19:22;;;;;;;5.65;5.45;;;;;;;;;;6157384;28;20050;-93
2024/01/01 13:22:24;;;;;;;4.70;4.60;;;;;;;;;;6161593;28;20493;-93
2024/01/01 13:25:26;;;;;;;5.65;5.20;;;;;;;;;;6163173;28;20707;-94
2024/01/01 13:28:28;;;;;;;5.10;5.00;;;;;;;;;;6159660;28;20076;-93
2024/01/01 13:31:30;;;;;;;4.75;4.65;;;;;;;;;;6158597;28;20051;-93
2024/01/01 13:34:31;;;;;;;5.95;5.43;;;;;;;;;;6152109;28;20191;-93
2024/01/01 13:37:33;;;;;;;5.32;5.13;;;;;;;;;;6160315;28;20145;-93
2024/01/01 13:40:40;;;;;;;6.10;5.72;;;;;;;;;;6158275;28;20171;-92
2024/01/01 13:43:43;;;;;;;5.72;5.53;;;;;;;;;;6160981;28;20081;-93
2024/01/01 13:46:46;;;;;;;5.13;4.93;;;;;;;;;;6158907;28;20085;-93
2024/01/01 13:49:47;;;;;;;4.88;4.78;;;;;;;;;;6163124;28;20072;-92
2024/01/01 13:52:50;;;;;;;5.22;5.03;;;;;;;;;;6163972;28;20069;-93
2024/01/01 13:55:54;;;;;;;4.72;4.63;;;;;;;;;;6146922;28;20051;-93
2024/01/01 13:58:57;;;;;;;5.07;4.90;;;;;;;;;;6164022;28;20396;-93
2024/01/01 14:02:00;;;;;;;5.05;4.90;;;;;;;;;;6161134;28;20043;-93
2024/01/01 14:05:04;;;;;;;5.85;5.65;;;;;;;;;;6153141;28;20502;-93
2024/01/01 14:08:06;;;;;;;4.80;4.70;;;;;;;;;;6155199;28;20043;-93
2024/01/01 14:11:08;;;;;;;4.90;4.80;;;;;;;;;;6145821;28;20043;-93
2024/01/01 14:14:10;;;;;;;7.53;5.72;;;;;;;;;;6157064;28;20053;-93
2024/01/01 14:17:17;;;;;;;5.57;5.38;;;;;;;;;;6133799;28;20044;-93
2024/01/01 14:20:20;;;;;;;5.53;5.32;;;;;;;;;;6156528;28;20564;-93
2024/01/01 14:23:23;;;;;;;4.75;4.60;;;;;;;;;;6160301;28;20137;-93
2024/01/01 14:26:24;;;;;;;5.78;5.57;;;;;;;;;;6160450;28;20055;-93
2024/01/01 14:29:29;;;;;;;4.75;4.65;;;;;;;;;;6157498;28;20059;-93
2024/01/01 14:32:31;;;;;;;5.88;5.68;;;;;;;;;;6155318;28;20061;-92
2024/01/01 14:35:33;;;;;;;5.72;5.53;;;;;;;;;;6153859;28;20437;-92
2024/01/01 14:38:36;;;;;;;5.47;5.28;;;;;;;;;;6157848;28;20177;-93
2024/01/01 14:41:38;;;;;;;5.00;4.80;;;;;;;;;;6161969;28;20060;-92
2024/01/01 14:44:40;;;;;;;5.13;4.93;;;;;;;;;;6160624;28;20601;-94
2024/01/01 14:47:43;;;;;;;6.55;5.93;;;;;;;;;;6151305;28;20426;-94
2024/01/01 14:50:45;;;;;;;5.63;5.20;;;;;;;;;;6152944;28;20043;-92
2024/01/01 14:53:47;;;;;;;5.25;5.10;;;;;;;;;;6157146;28;20057;-94
2024/01/01 14:56:49;;;;;;;5.78;5.57;;;;;;;;;;6164719;28;20657;-92
2024/01/01 14:59:51;;;;;;;5.80;5.60;;;;;;;;;;6147701;28;20054;-93
2024/01/01 15:02:53;;;;;;;6.03;5.63;;;;;;;;;;6144880;28;20121;-93
2024/01/01 15:05:56;;;;;;;5.03;4.90;;;;;;;;;;6160311;28;20042;-94
2024/01/01 15:09:00;;;;;;;5.68;5.47;;;;;;;;;;6164436;28;20477;-93
2024/01/01 15:12:01;;;;;;;6.40;6.20;;;;;;;;;;6173125;28;20043;-92
2024/01/01 15:15:04;;;;;;;6.20;6.00;;;;;;;;;;6167329;28;20051;-93
2024/01/01 15:18:06;;;;;;;5.13;4.93;;;;;;;;;;6158934;28;20043;-93
2024/01/01 15:21:08;;;;;;;7.40;6.88;;;;;;;;;;6167842;28;20520;-93
2024/01/01 15:24:09;;;;;;;4.75;4.63;;;;;;;;;;6161483;28;20046;-93
2024/01/01 15:27:13;;;;;;;4.93;4.78;;;;;;;;;;6160744;28;20043;-93
2024/01/01 15:30:15;;;;;;;5.90;5.70;;;;;;;;;;6163172;28;20049;-92
2024/01/01 15:33:17;;;;;;;5.63;5.43;;;;;;;;;;6160025;28;20038;-93
2024/01/01 15:36:20;;;;;;;5.35;5.15;;;;;;;;;;6160478;28;20462;-92
2024/01/01 15:39:22;;;;;;;6.00;5.80;;;;;;;;;;6157240;28;20051;-93
2024/01/01 15:42:23;;;;;;;6.03;5.72;;;;;;;;;;6165557;28;20061;-93
2024/01/01 15:45:26;;;;;;;4.78;4.68;;;;;;;;;;6164743;28;20050;-93
2024/01/01 15:48:28;;;;;;;5.05;4.85;;;;;;;;;;6165912;28;20509;-93
2024/01/01 15:51:30;;;;;;;5.88;5.22;;;;;;;;;;6166267;28;20038;-93
2024/01/01 15:54:46;;;;;;;5.63;5.43;;;;;;;;;;6160496;28;20043;-93
2024/01/01 15:57:48;;;;;;;5.18;4.97;;;;;;;;;;6160832;28;20161;-93
2024/01/01 16:00:51;;;;;;;4.72;4.63;;;;;;;;;;6166334;28;20039;-93
2024/01/01 16:03:54;;;;;;;6.82;6.45;;;;;;;;;;6160232;28;20035;-92
2024/01/01 16:06:56;;;;;;;5.90;5.70;;;;;;;;;;6167591;28;20378;-92
2024/01/01 16:09:58;;;;;;;5.90;5.68;;;;;;;;;;6159824;28;20039;-93
2024/01/01 16:13:00;;;;;;;6.05;5.85;;;;;;;;;;6155787;28;20074;-92
2024/01/01 16:16:02;;;;;;;5.05;4.93;;;;;;;;;;6164694;28;20485;-94
2024/01/01 16:19:04;;;;;;;8.52;8.13;;;;;;;;;;6160465;28;20042;-94
2024/01/01 16:22:20;;;;;;;5.88;5.68;;;;;;;;;;6166200;28;20045;-93
2024/01/01 16:25:22;;;;;;;6.80;6.32;;;;;;;;;;6157935;28;20670;-94
2024/01/01 16:28:24;;;;;;;5.57;5.38;;;;;;;;;;6164565;28;20092;-94
2024/01/01 16:31:26;;;;;;;5.80;5.60;;;;;;;;;;6165068;28;20050;-95
2024/01/01 16:34:29;;;;;;;6.18;5.88;;;;;;;;;;6164749;28;20460;-95
2024/01/01 16:37:31;;;;;;;5.63;5.43;;;;;;;;;;6166582;28;20054;-95
2024/01/01 16:40:34;;;;;;;4.72;4.63;;;;;;;;;;6165573;28;20535;-94
2024/01/01 16:43:36;;;;;;;5.50;5.30;;;;;;;;;;6161973;28;20147;-94
2024/01/01 16:46:41;;;;;;;6.15;5.93;;;;;;;;;;6155407;28;20047;-94
2024/01/01 16:49:44;;;;;;;5.47;5.28;;;;;;;;;;6152595;28;20062;-94
2024/01/01 16:52:46;;;;;;;5.32;5.13;;;;;;;;;;6155358;28;20465;-94
2024/01/01 16:55:49;;;;;;;5.53;5.32;;;;;;;;;;6157654;28;20034;-94
2024/01/01 16:58:50;;;;;;;6.40;6.00;;;;;;;;;;6156195;28;20112;-94
2024/01/01 17:01:53;;;;;;;6.53;6.18;;;;;;;;;;6151301;28;20047;-94
2024/01/01 17:04:56;;;;;;;6.50;6.30;;;;;;;;;;6148277;28;20089;-94
2024/01/01 17:07:58;;;;;;;5.35;5.15;;;;;;;;;;6166153;28;20043;-95
2024/01/01 17:11:05;;;;;;;6.93;6.45;;;;;;;;;;6158710;28;20106;-95
2024/01/01 17:14:07;;;;;;;6.03;5.82;;;;;;;;;;6160827;28;20047;-94
2024/01/01 17:17:08;;;;;;;8.20;7.90;;;;;;;;;;6142317;28;20413;-95
2024/01/01 17:20:11;;;;;;;6.65;6.28;;;;;;;;;;6165105;28;20039;-95
2024/01/01 17:23:13;;;;;;;5.70;5.50;;;;;;;;;;6158077;28;20117;-94
2024/01/01 17:26:16;;;;;;;6.07;5.88;;;;;;;;;;6161129;28;20406;-94
2024/01/01 17:29:18;;;;;;;5.15;4.97;;;;;;;;;;6162556;28;20043;-91
2024/01/01 17:32:23;;;;;;;5.05;4.95;;;;;;;;;;6161950;28;20769;-91
2024/01/01 17:35:40;;;;;;;5.80;5.60;;;;;;;;;;6161069;28;20166;-92
2024/01/01 17:38:56;;;;;;;5.97;5.78;;;;;;;;;;6142855;28;20097;-92
2024/01/01 17:41:57;;;;;;;5.65;5.22;;;;;;;;;;6159921;28;20080;-92
2024/01/01 17:44:59;;;;;;;6.20;6.00;;;;;;;;;;6140612;28;20061;-92
2024/01/01 17:48:01;;;;;;;5.78;5.57;;;;;;;;;;6162003;28;20093;-93
2024/01/01 17:51:11;;;;;;;5.63;5.43;;;;;;;;;;6161544;28;20045;-93
2024/01/01 17:54:13;;;;;;;5.35;5.15;;;;;;;;;;6157116;28;20118;-93
2024/01/01 17:57:15;;;;;;;5.63;5.43;;;;;;;;;;6155802;28;20047;-93
2024/01/01 18:00:17;;;;;;;6.32;5.97;;;;;;;;;;6151056;28;20405;-93
2024/01/01 18:03:20;;;;;;;5.93;5.72;;;;;;;;;;6155992;28;20043;-93
2024/01/01 18:06:22;;;;;;;5.80;5.60;;;;;;;;;;6160646;28;20490;-92
2024/01/01 18:09:25;;;;;;;5.38;5.18;;;;;;;;;;6161250;28;20628;-92
2024/01/01 18:12:27;;;;;;;6.18;5.63;;;;;;;;;;6160436;28;20057;-92
2024/01/01 18:15:29;;;;;;;6.38;6.07;;;;;;;;;;6158030;28;20075;-92